Time;durP1;ratioP1;P1;durP2;ratioP2;P2;SDS_P1;SDS_P2;PMS_P1;PMS_P2;Temp;Humidity;BMP_temperature;BMP_pressure;BME280_temperature;BME280_humidity;BME280_pressure;Samples;Min_cycle;Max_cycle;Signal;HPM_P1;HPM_P2
2023/06/14 00:07:00;;;;;;;;;;;19.50;32.40;;;18.09;31.20;101341.03;12268782;19;19982;-84
2023/06/14 00:11:01;;;;;;;;;;;19.40;32.90;;;18.44;31.34;101413.28;12263572;19;20364;-84
2023/06/14 00:15:03;;;;;;;;;;;19.30;32.50;;;18.45;31.32;101425.56;12270671;19;19911;-84
2023/06/14 00:19:05;;;;;;;;;;;19.20;32.60;;;18.28;31.27;101403.91;12260842;19;20318;-84
2023/06/14 00:23:06;;;;;;;;;;;19.10;32.50;;;18.32;31.59;101421.19;12262426;19;19939;-84
2023/06/14 00:27:07;;;;;;;;;;;19.10;32.70;;;18.26;31.62;101426.13;12264066;19;19918;-84
2023/06/14 00:31:09;;;;;;;;;;;19.00;32.70;;;18.05;31.55;101413.56;12265188;19;20389;-84
2023/06/14 00:35:11;;;;;;;;;;;18.90;33.20;;;18.05;31.66;101432.06;12265512;19;19922;-84
2023/06/14 00:39:12;;;;;;;;;;;18.90;32.90;;;17.98;31.52;101422.06;12264086;19;19923;-84
2023/06/14 00:43:13;;;;;;;;;;;18.80;33.40;;;17.81;31.75;101408.31;12269628;19;19915;-84
2023/06/14 00:47:15;;;;;;;;;;;18.70;33.10;;;17.75;31.74;101413.22;12261745;19;19991;-84
2023/06/14 00:51:16;;;;;;;;;;;18.60;33.00;;;17.79;31.86;101428.72;12266086;19;19918;-84
2023/06/14 00:55:18;;;;;;;;;;;18.60;33.10;;;17.77;31.98;101413.91;12266648;19;19927;-84
2023/06/14 00:59:19;;;;;;;;;;;18.50;33.10;;;17.69;31.84;101423.28;12264498;19;19915;-84
2023/06/14 01:03:22;;;;;;;;;;;18.50;33.20;;;17.65;31.78;101416.53;12266085;19;19915;-84
2023/06/14 01:07:42;;;;;;;;;;;18.40;33.10;;;17.50;31.98;101399.19;12267081;19;19922;-84
2023/06/14 01:11:46;;;;;;;;;;;18.40;33.20;;;17.52;32.03;101421.00;12265905;19;20238;-84
2023/06/14 01:15:50;;;;;;;;;;;18.30;33.20;;;17.39;32.07;101407.03;12265699;19;20380;-84
2023/06/14 01:19:57;;;;;;;;;;;18.30;33.30;;;17.32;32.11;101404.00;12265092;19;19919;-84
2023/06/14 01:24:11;;;;;;;;;;;18.20;33.40;;;17.35;32.12;101421.41;12271547;19;20330;-84
2023/06/14 01:28:16;;;;;;;;;;;18.10;33.30;;;17.25;32.32;101416.81;12270755;19;19948;-84
2023/06/14 01:32:18;;;;;;;;;;;18.10;33.50;;;17.11;32.02;101402.91;12267200;19;19922;-84
2023/06/14 01:36:20;;;;;;;;;;;18.00;33.40;;;17.09;32.18;101413.56;12259841;19;19986;-84
2023/06/14 01:40:22;;;;;;;;;;;17.90;33.50;;;16.98;32.28;101402.94;12255679;19;19978;-85
2023/06/14 01:44:25;;;;;;;;;;;17.90;33.40;;;16.89;32.28;101400.97;12260336;19;19936;-85
2023/06/14 01:48:27;;;;;;;;;;;17.80;33.60;;;16.84;32.32;101408.38;12259887;19;19915;-85
2023/06/14 01:52:28;;;;;;;;;;;17.70;33.50;;;16.67;32.71;101397.19;12259608;19;20697;-85
2023/06/14 01:56:30;;;;;;;;;;;17.60;33.80;;;16.73;32.49;101414.34;12262132;19;19921;-85
2023/06/14 02:00:32;;;;;;;;;;;17.60;33.80;;;16.66;32.41;101411.31;12266038;19;19960;-85
2023/06/14 02:04:34;;;;;;;;;;;17.50;33.80;;;16.54;32.81;101401.63;12266391;19;19929;-85
2023/06/14 02:08:35;;;;;;;;;;;17.50;34.00;;;16.58;32.71;101408.38;12264628;19;19918;-85
2023/06/14 02:12:58;;;;;;;;;;;17.40;33.90;;;16.56;32.85;101421.66;12266636;19;20387;-85
2023/06/14 02:17:00;;;;;;;;;;;17.40;34.10;;;16.52;32.78;101421.97;12265525;19;19914;-85
2023/06/14 02:21:02;;;;;;;;;;;17.40;34.10;;;16.47;33.02;101431.97;12268076;19;19939;-85
2023/06/14 02:25:04;;;;;;;;;;;17.30;34.40;;;16.40;33.00;101420.19;12268068;19;19923;-85
2023/06/14 02:29:06;;;;;;;;;;;17.30;34.50;;;16.31;33.02;101404.06;12263421;19;19914;-85
2023/06/14 02:33:12;;;;;;;;;;;17.30;34.50;;;16.41;33.11;101421.88;12261802;19;19919;-85
2023/06/14 02:37:16;;;;;;;;;;;17.30;34.50;;;16.43;33.05;101425.25;12261757;19;19922;-85
2023/06/14 02:41:17;;;;;;;;;;;17.30;34.60;;;16.33;33.43;101410.03;12262717;19;19911;-85
2023/06/14 02:45:20;;;;;;;;;;;17.30;34.50;;;16.37;33.37;101418.59;12260404;19;20009;-85
2023/06/14 02:49:22;;;;;;;;;;;17.30;34.60;;;16.38;33.32;101421.13;12260341;19;19922;-85
2023/06/14 02:53:24;;;;;;;;;;;17.30;34.60;;;16.41;33.40;101419.22;12259742;19;19938;-85
2023/06/14 02:57:26;;;;;;;;;;;17.30;34.60;;;16.48;33.51;101429.25;12256822;19;19922;-85
2023/06/14 03:01:34;;;;;;;;;;;17.40;34.70;;;16.12;33.48;101374.63;12266633;19;19914;-85
2023/06/14 03:05:45;;;;;;;;;;;17.40;34.70;;;16.49;33.30;101430.09;12262654;19;20332;-85
2023/06/14 03:09:48;;;;;;;;;;;17.40;34.60;;;16.40;33.48;101417.56;12260877;19;19919;-85
2023/06/14 03:13:52;;;;;;;;;;;17.40;34.60;;;16.23;33.51;101389.69;12268453;19;19946;-85
2023/06/14 03:17:53;;;;;;;;;;;17.40;34.60;;;16.42;33.49;101418.28;12255542;19;19918;-85
2023/06/14 03:21:57;;;;;;;;;;;17.40;34.70;;;16.34;33.55;101411.75;12257911;19;20608;-84
2023/06/14 03:26:00;;;;;;;;;;;17.30;34.70;;;16.12;33.63;101393.06;12260362;19;19914;-84
2023/06/14 03:30:02;;;;;;;;;;;17.30;34.70;;;16.31;33.69;101443.59;12257349;19;19950;-86
2023/06/14 03:34:05;;;;;;;;;;;17.20;34.70;;;16.24;33.82;101431.78;12267835;19;19927;-85
2023/06/14 03:38:07;;;;;;;;;;;17.20;35.00;;;16.15;33.86;101417.44;12265704;19;19974;-86
2023/06/14 03:42:09;;;;;;;;;;;17.20;35.00;;;16.24;33.81;101439.69;12265415;19;19927;-86
2023/06/14 03:46:11;;;;;;;;;;;17.20;35.00;;;16.17;33.81;101422.56;12264450;19;19922;-86
2023/06/14 03:50:13;;;;;;;;;;;17.10;35.10;;;16.10;34.11;101418.69;12263772;19;20325;-86
2023/06/14 03:54:15;;;;;;;;;;;17.10;34.90;;;16.21;34.05;101437.25;12267480;19;19930;-86
2023/06/14 03:58:17;;;;;;;;;;;17.10;35.10;;;16.02;34.12;101415.72;12263923;19;19919;-83
2023/06/14 04:02:19;;;;;;;;;;;17.10;35.20;;;16.25;34.03;101453.69;12265494;19;20320;-83
2023/06/14 04:06:20;;;;;;;;;;;17.10;35.40;;;16.21;34.02;101452.22;12268407;19;19915;-83
2023/06/14 04:10:23;;;;;;;;;;;17.20;35.30;;;16.23;34.16;101461.72;12261039;19;19919;-83
2023/06/14 04:14:25;;;;;;;;;;;17.20;35.40;;;16.29;34.29;101458.66;12265590;19;19919;-83
2023/06/14 04:18:27;;;;;;;;;;;17.20;35.40;;;16.27;34.18;101438.63;12259354;19;19919;-83
2023/06/14 04:22:28;;;;;;;;;;;17.30;36.10;;;16.40;34.36;101444.75;12263894;19;19915;-83
2023/06/14 04:26:33;;;;;;;;;;;17.30;35.80;;;16.32;34.51;101436.53;12263315;19;19926;-83
2023/06/14 04:30:38;;;;;;;;;;;17.30;35.80;;;16.25;34.61;101412.38;12265730;19;20242;-83
2023/06/14 04:34:41;;;;;;;;;;;17.40;35.80;;;16.45;34.58;101442.66;12257220;19;20285;-84
2023/06/14 04:38:44;;;;;;;;;;;17.50;38.30;;;16.62;34.53;101465.22;12263420;19;19995;-83
2023/06/14 04:42:50;;;;;;;;;;;17.50;37.90;;;16.66;34.58;101466.72;12261503;19;20349;-85
2023/06/14 04:46:56;;;;;;;;;;;17.60;38.30;;;16.62;34.75;101446.75;12262065;19;19915;-86
2023/06/14 04:50:58;;;;;;;;;;;17.70;37.90;;;16.77;34.83;101460.72;12259761;19;19914;-86
2023/06/14 04:55:01;;;;;;;;;;;17.70;37.20;;;16.83;34.93;101451.53;12261248;19;19943;-86
2023/06/14 04:59:06;;;;;;;;;;;17.90;37.90;;;16.90;35.10;101453.59;12255117;19;19951;-86
2023/06/14 05:03:08;;;;;;;;;;;18.00;37.40;;;17.07;35.15;101472.72;12256388;19;19923;-86
2023/06/14 05:07:10;;;;;;;;;;;18.10;37.90;;;17.05;35.21;101451.69;12264774;19;19923;-86
2023/06/14 05:11:12;;;;;;;;;;;18.10;37.50;;;17.24;35.33;101461.78;12261725;19;19919;-86
2023/06/14 05:15:14;;;;;;;;;;;18.20;36.90;;;17.31;35.38;101472.75;12259699;19;19910;-86
2023/06/14 05:19:17;;;;;;;;;;;18.30;38.20;;;17.31;35.37;101464.81;12262825;19;19911;-86
2023/06/14 05:23:19;;;;;;;;;;;18.40;38.00;;;17.37;35.48;101474.97;12265695;19;19942;-85
2023/06/14 05:27:21;;;;;;;;;;;18.40;39.50;;;17.38;35.43;101466.91;12263820;19;19911;-86
2023/06/14 05:31:26;;;;;;;;;;;18.50;37.80;;;17.51;35.65;101488.00;12265164;19;20325;-86
2023/06/14 05:35:28;;;;;;;;;;;18.50;37.90;;;17.36;35.72;101457.41;12266820;19;20272;-86
2023/06/14 05:39:30;;;;;;;;;;;18.60;38.40;;;17.37;35.58;101451.19;12256396;19;19911;-86
2023/06/14 05:43:31;;;;;;;;;;;18.70;38.40;;;17.64;35.63;101487.97;12248995;19;19958;-86
2023/06/14 05:47:33;;;;;;;;;;;18.70;38.40;;;17.55;35.78;101478.91;12256410;19;19918;-86
2023/06/14 05:51:35;;;;;;;;;;;18.80;37.70;;;17.74;35.73;101494.28;12250464;19;19918;-86
2023/06/14 05:55:36;;;;;;;;;;;18.80;38.20;;;17.70;35.86;101480.44;12251439;19;19927;-86
2023/06/14 05:59:38;;;;;;;;;;;18.80;38.40;;;17.49;35.70;101445.00;12246305;19;19935;-86
2023/06/14 06:03:45;;;;;;;;;;;18.90;38.20;;;17.82;35.58;101496.34;12248641;19;20325;-85
2023/06/14 06:07:48;;;;;;;;;;;18.90;39.10;;;17.82;35.96;101491.94;12247356;19;20006;-85
2023/06/14 06:11:49;;;;;;;;;;;18.90;38.80;;;17.89;35.74;101492.31;12247297;19;19918;-85
2023/06/14 06:15:51;;;;;;;;;;;19.00;38.10;;;17.88;35.90;101482.72;12248478;19;19946;-84
2023/06/14 06:19:52;;;;;;;;;;;19.00;38.70;;;17.96;35.99;101477.72;12243344;19;19930;-84
2023/06/14 06:23:54;;;;;;;;;;;19.00;39.40;;;18.00;36.07;101484.44;12241163;19;19933;-84
2023/06/14 06:27:56;;;;;;;;;;;19.10;38.10;;;18.04;35.97;101491.19;12245986;19;19949;-84
2023/06/14 06:31:57;;;;;;;;;;;19.10;37.90;;;18.13;36.15;101503.72;12247225;19;19939;-85
2023/06/14 06:35:59;;;;;;;;;;;19.20;37.90;;;18.24;35.97;101507.34;12249623;19;19907;-84
2023/06/14 06:40:01;;;;;;;;;;;19.20;37.90;;;18.26;36.14;101513.38;12246755;19;20276;-85
2023/06/14 06:44:02;;;;;;;;;;;19.30;37.60;;;18.19;36.05;101491.84;12248350;19;20330;-84
2023/06/14 06:48:04;;;;;;;;;;;19.30;39.50;;;18.38;36.15;101517.72;12255337;19;19983;-84
2023/06/14 06:52:07;;;;;;;;;;;19.40;37.40;;;18.32;36.37;101489.13;12260730;19;20233;-82
2023/06/14 06:56:08;;;;;;;;;;;19.40;38.00;;;18.41;36.35;101496.34;12267390;19;19915;-82
2023/06/14 07:00:10;;;;;;;;;;;19.50;38.30;;;18.52;36.60;101506.09;12261934;19;19926;-83
2023/06/14 07:04:12;;;;;;;;;;;19.60;38.00;;;18.58;36.63;101510.94;12259954;19;19915;-82
2023/06/14 07:08:14;;;;;;;;;;;19.70;38.20;;;18.69;36.39;101512.78;12259151;19;19946;-83
2023/06/14 07:12:15;;;;;;;;;;;19.80;40.10;;;18.88;36.68;101528.94;12260386;19;19989;-83
2023/06/14 07:16:17;;;;;;;;;;;19.90;39.20;;;18.98;36.64;101529.91;12260365;19;19932;-82
2023/06/14 07:20:19;;;;;;;;;;;20.00;38.50;;;19.08;36.36;101534.47;12259082;19;19907;-84
2023/06/14 07:24:21;;;;;;;;;;;20.10;38.70;;;18.82;36.47;101476.47;12256164;19;19923;-83
2023/06/14 07:28:23;;;;;;;;;;;20.20;39.00;;;19.27;36.54;101540.00;12262396;19;19922;-82
2023/06/14 07:32:25;;;;;;;;;;;20.30;39.40;;;19.33;36.87;101539.50;12258693;19;19923;-82
2023/06/14 07:36:26;;;;;;;;;;;20.40;38.50;;;19.35;36.81;101531.47;12257051;19;19907;-83
2023/06/14 07:40:35;;;;;;;;;;;20.50;37.90;;;19.39;36.55;101525.81;12244122;19;20250;-85
2023/06/14 07:44:36;;;;;;;;;;;20.60;38.50;;;19.52;36.89;101530.09;12255856;19;19907;-82
2023/06/14 07:48:38;;;;;;;;;;;20.60;38.10;;;19.58;36.88;101543.72;12255210;19;19907;-84
2023/06/14 07:52:39;;;;;;;;;;;20.70;38.10;;;19.70;36.77;101536.59;12254894;19;20344;-83
2023/06/14 07:56:41;;;;;;;;;;;20.70;38.80;;;19.51;36.83;101489.53;12257470;19;19911;-84
2023/06/14 08:00:42;;;;;;;;;;;20.80;37.90;;;19.80;36.67;101529.59;12255608;19;19944;-83
2023/06/14 08:04:44;;;;;;;;;;;20.90;37.60;;;19.89;36.73;101528.84;12253980;19;19922;-83
2023/06/14 08:08:45;;;;;;;;;;;20.90;38.10;;;19.89;36.70;101517.41;12253577;19;19915;-84
2023/06/14 08:12:46;;;;;;;;;;;21.00;37.90;;;20.05;36.68;101524.94;12251061;19;19992;-81
2023/06/14 08:16:48;;;;;;;;;;;21.10;37.80;;;20.13;36.59;101517.19;12252295;19;20297;-81
2023/06/14 08:20:50;;;;;;;;;;;21.20;37.70;;;20.24;36.91;101527.75;12252569;19;19911;-81
2023/06/14 08:24:52;;;;;;;;;;;21.30;38.80;;;20.32;36.89;101522.63;12251328;19;20341;-81
2023/06/14 08:28:54;;;;;;;;;;;21.40;38.50;;;20.11;37.02;101477.53;12250268;19;19911;-81
2023/06/14 08:32:56;;;;;;;;;;;21.40;37.70;;;20.47;36.63;101523.16;12251511;19;20329;-82
2023/06/14 08:36:57;;;;;;;;;;;21.50;37.70;;;20.53;36.80;101527.13;12250449;19;19991;-82
2023/06/14 08:41:00;;;;;;;;;;;21.60;38.00;;;20.38;37.04;101497.41;12250230;19;19992;-82
2023/06/14 08:45:02;;;;;;;;;;;21.70;38.30;;;20.69;36.68;101524.88;12250165;19;19978;-81
2023/06/14 08:49:05;;;;;;;;;;;21.80;37.70;;;20.82;36.87;101539.72;12248139;19;19947;-81
2023/06/14 08:53:10;;;;;;;;;;;21.80;38.70;;;20.81;36.92;101530.94;12248226;19;19938;-81
2023/06/14 08:57:15;;;;;;;;;;;21.90;38.20;;;20.90;37.12;101539.91;12248264;19;19921;-81
2023/06/14 09:01:17;;;;;;;;;;;22.00;38.10;;;20.87;37.22;101529.56;12248972;19;19954;-81
2023/06/14 09:05:19;;;;;;;;;;;22.00;38.40;;;20.83;37.00;101514.88;12249675;19;19931;-81
2023/06/14 09:09:22;;;;;;;;;;;22.00;38.60;;;21.02;36.99;101541.53;12244111;19;19911;-81
2023/06/14 09:13:26;;;;;;;;;;;22.00;38.50;;;21.07;36.77;101530.50;12250255;19;20278;-82
2023/06/14 09:17:27;;;;;;;;;;;22.10;37.90;;;21.23;37.14;101538.00;12248198;19;20335;-81
2023/06/14 09:21:33;;;;;;;;;;;22.30;38.20;;;21.27;36.93;101526.09;12248364;19;19919;-81
2023/06/14 09:25:46;;;;;;;;;;;22.40;37.40;;;21.46;36.92;101534.16;12247776;19;19918;-81
2023/06/14 09:29:48;;;;;;;;;;;22.50;38.00;;;21.52;37.09;101536.28;12245676;19;20017;-81
2023/06/14 09:33:50;;;;;;;;;;;22.50;39.00;;;21.40;36.72;101506.31;12246426;19;19967;-81
2023/06/14 09:37:52;;;;;;;;;;;22.60;37.20;;;21.57;36.88;101531.38;12245365;19;19918;-81
2023/06/14 09:41:53;;;;;;;;;;;22.70;38.00;;;21.68;37.13;101541.06;12246855;19;19952;-81
2023/06/14 09:45:55;;;;;;;;;;;22.80;37.90;;;21.71;36.87;101527.53;12248449;19;20297;-81
2023/06/14 09:49:56;;;;;;;;;;;22.80;38.00;;;21.78;36.71;101533.94;12245154;19;19915;-81
2023/06/14 09:54:04;;;;;;;;;;;22.80;38.00;;;21.77;36.78;101526.13;12249161;19;19914;-83
2023/06/14 09:58:07;;;;;;;;;;;22.80;36.80;;;21.92;37.06;101553.13;12244944;19;19914;-82
2023/06/14 10:02:23;;;;;;;;;;;22.90;37.40;;;21.84;37.04;101524.56;12245567;19;19911;-81
2023/06/14 10:06:26;;;;;;;;;;;23.00;37.70;;;21.93;37.22;101536.19;12246897;19;19919;-81
2023/06/14 10:10:28;;;;;;;;;;;23.00;36.80;;;21.98;36.87;101545.47;12245111;19;19970;-82
2023/06/14 10:14:31;;;;;;;;;;;23.00;37.10;;;21.97;37.23;101538.44;12248286;19;20259;-82
2023/06/14 10:18:53;;;;;;;;;;;23.00;37.10;;;22.04;36.58;101538.75;12243710;19;19919;-82
2023/06/14 10:22:59;;;;;;;;;;;23.10;37.30;;;21.99;36.97;101519.69;12245874;19;20488;-83
2023/06/14 10:27:01;;;;;;;;;;;23.10;37.40;;;22.12;37.03;101543.38;12244413;19;19922;-82
2023/06/14 10:31:07;;;;;;;;;;;23.10;37.30;;;22.17;36.67;101547.28;12247976;19;20661;-81
2023/06/14 10:35:16;;;;;;;;;;;23.20;37.40;;;22.17;36.75;101533.13;12246935;19;19922;-82
2023/06/14 10:39:17;;;;;;;;;;;23.20;36.50;;;22.16;36.68;101521.66;12245166;19;19974;-82
2023/06/14 10:43:23;;;;;;;;;;;23.20;36.70;;;22.20;36.92;101515.09;12244921;19;20314;-82
2023/06/14 10:47:40;;;;;;;;;;;23.30;38.10;;;22.37;36.83;101539.31;12245984;19;20340;-82
2023/06/14 10:51:48;;;;;;;;;;;23.30;37.70;;;22.34;36.68;101523.66;12244607;19;19935;-82
2023/06/14 10:55:50;;;;;;;;;;;23.40;37.40;;;22.39;36.94;101522.22;12246136;19;19915;-82
2023/06/14 10:59:52;;;;;;;;;;;23.40;37.50;;;22.39;36.99;101511.59;12240610;19;19922;-82
2023/06/14 11:03:53;;;;;;;;;;;23.40;37.60;;;22.49;37.05;101512.41;12244046;19;19940;-82
2023/06/14 11:08:04;;;;;;;;;;;23.50;36.70;;;22.60;36.60;101518.53;12241767;19;19927;-82
2023/06/14 11:12:10;;;;;;;;;;;23.50;36.90;;;22.65;36.89;101508.28;12243440;19;20379;-82
2023/06/14 11:16:16;;;;;;;;;;;23.60;36.90;;;22.66;36.84;101492.19;12242366;19;19919;-82
2023/06/14 11:20:18;;;;;;;;;;;23.70;37.60;;;22.73;36.64;101493.25;12239755;19;20353;-82
2023/06/14 11:24:19;;;;;;;;;;;23.70;36.80;;;22.77;36.58;101472.53;12242434;19;19925;-82
2023/06/14 11:28:22;;;;;;;;;;;23.80;36.80;;;22.87;36.87;101478.66;12242856;19;19913;-83
2023/06/14 11:32:23;;;;;;;;;;;23.80;36.80;;;22.97;36.98;101476.81;12248526;19;19974;-83
2023/06/14 11:36:29;;;;;;;;;;;24.00;36.90;;;23.03;36.80;101483.38;12254787;19;19992;-83
2023/06/14 11:40:31;;;;;;;;;;;24.00;36.90;;;23.10;36.49;101471.13;12250603;19;19931;-83
2023/06/14 11:44:33;;;;;;;;;;;24.10;36.50;;;23.24;36.59;101463.63;12247637;19;19927;-83
2023/06/14 11:48:40;;;;;;;;;;;24.20;36.50;;;23.14;36.54;101421.91;12251293;19;19918;-81
2023/06/14 11:52:42;;;;;;;;;;;24.30;36.40;;;23.51;36.69;101454.75;12255556;19;19930;-83
2023/06/14 11:56:44;;;;;;;;;;;24.40;36.90;;;23.65;36.85;101448.88;12253240;19;19910;-82
2023/06/14 12:00:49;;;;;;;;;;;24.60;36.60;;;23.83;36.87;101447.09;12254916;19;19930;-83
2023/06/14 12:04:51;;;;;;;;;;;24.80;36.30;;;24.03;36.68;101446.91;12251494;19;19947;-83
2023/06/14 12:08:55;;;;;;;;;;;24.90;36.10;;;24.13;36.32;101428.97;12256354;19;19919;-84
2023/06/14 12:13:00;;;;;;;;;;;25.10;36.10;;;24.27;36.54;101420.38;12254422;19;19914;-82
2023/06/14 12:17:06;;;;;;;;;;;25.20;36.10;;;24.45;36.41;101430.22;12250949;19;19922;-83
2023/06/14 12:21:09;;;;;;;;;;;25.40;35.60;;;24.59;36.34;101432.28;12258542;19;20254;-84
2023/06/14 12:25:22;;;;;;;;;;;25.60;35.80;;;24.59;36.34;101418.94;12255360;19;20327;-83
2023/06/14 12:29:24;;;;;;;;;;;25.70;35.60;;;24.64;36.41;101408.63;12251524;19;20243;-83
2023/06/14 12:33:26;;;;;;;;;;;25.70;35.60;;;24.87;36.46;101421.38;12253519;19;19948;-83
2023/06/14 12:37:27;;;;;;;;;;;25.80;35.30;;;24.88;36.32;101412.38;12255244;19;19999;-83
2023/06/14 12:41:29;;;;;;;;;;;25.90;35.10;;;24.98;36.05;101415.78;12255161;19;20261;-83
2023/06/14 12:45:30;;;;;;;;;;;26.00;34.90;;;25.02;35.79;101409.09;12253554;19;19914;-83
2023/06/14 12:49:32;;;;;;;;;;;26.00;34.50;;;25.17;36.14;101407.50;12251337;19;19911;-83
2023/06/14 12:53:34;;;;;;;;;;;26.20;34.70;;;25.32;36.06;101410.34;12255677;19;19922;-82
2023/06/14 12:57:36;;;;;;;;;;;26.30;34.30;;;25.44;36.00;101408.22;12253365;19;19923;-82
2023/06/14 13:01:39;;;;;;;;;;;26.40;34.30;;;25.52;35.95;101408.22;12255539;19;20005;-83
2023/06/14 13:05:42;;;;;;;;;;;26.50;34.80;;;25.55;35.82;101399.84;12253723;19;19934;-83
2023/06/14 13:09:44;;;;;;;;;;;26.60;34.30;;;25.74;35.29;101401.38;12252231;19;19923;-83
2023/06/14 13:13:46;;;;;;;;;;;26.70;34.30;;;25.85;35.71;101392.19;12253450;19;19918;-83
2023/06/14 13:17:48;;;;;;;;;;;26.80;34.50;;;25.82;35.13;101379.13;12252537;19;20267;-83
2023/06/14 13:21:50;;;;;;;;;;;26.90;34.20;;;25.94;35.27;101399.19;12251355;19;20281;-83
2023/06/14 13:25:51;;;;;;;;;;;27.00;34.10;;;25.88;35.19;101378.47;12253919;19;19922;-83
2023/06/14 13:29:54;;;;;;;;;;;27.00;34.20;;;25.96;35.36;101381.13;12250569;19;19957;-83
2023/06/14 13:33:56;;;;;;;;;;;27.00;33.50;;;25.99;34.96;101369.25;12249703;19;19922;-83
2023/06/14 13:37:57;;;;;;;;;;;27.00;34.00;;;26.04;35.14;101378.44;12252374;19;19914;-83
2023/06/14 13:41:59;;;;;;;;;;;27.00;33.10;;;26.07;34.77;101371.09;12250854;19;19918;-83
2023/06/14 13:46:01;;;;;;;;;;;27.00;33.70;;;26.13;34.99;101355.16;12252989;19;20330;-82
2023/06/14 13:50:03;;;;;;;;;;;27.10;33.90;;;26.31;35.18;101362.16;12249431;19;19919;-83
2023/06/14 13:54:05;;;;;;;;;;;27.20;32.40;;;26.34;35.02;101359.97;12250633;19;19917;-83
2023/06/14 13:58:06;;;;;;;;;;;27.30;32.70;;;26.36;34.39;101357.94;12245773;19;19936;-82
2023/06/14 14:02:08;;;;;;;;;;;27.30;33.20;;;26.33;34.33;101358.31;12256802;19;19922;-83
2023/06/14 14:06:09;;;;;;;;;;;27.30;33.60;;;26.23;34.47;101328.19;12247175;19;19948;-83
2023/06/14 14:10:13;;;;;;;;;;;27.30;32.30;;;26.44;34.63;101357.09;12246504;19;19970;-83
2023/06/14 14:14:14;;;;;;;;;;;27.40;33.00;;;26.48;34.09;101353.88;12248483;19;19907;-83
2023/06/14 14:18:16;;;;;;;;;;;27.40;33.70;;;26.47;34.49;101354.88;12247988;19;19915;-82
2023/06/14 14:22:17;;;;;;;;;;;27.40;33.50;;;26.51;34.00;101354.53;12248063;19;19953;-83
2023/06/14 14:26:19;;;;;;;;;;;27.40;33.20;;;26.47;34.48;101344.19;12252345;19;19947;-83
2023/06/14 14:30:23;;;;;;;;;;;27.40;33.40;;;26.57;34.27;101345.81;12241290;19;19938;-83
2023/06/14 14:34:25;;;;;;;;;;;27.40;33.90;;;26.69;34.36;101342.59;12249443;19;19927;-83
2023/06/14 14:38:26;;;;;;;;;;;27.50;33.60;;;26.75;33.97;101326.81;12246453;19;20304;-83
2023/06/14 14:42:28;;;;;;;;;;;27.70;32.90;;;26.85;33.97;101333.63;12246952;19;19918;-83
2023/06/14 14:46:29;;;;;;;;;;;27.70;33.10;;;26.87;33.55;101330.78;12246680;19;19927;-83
2023/06/14 14:50:30;;;;;;;;;;;27.80;32.80;;;26.93;33.52;101338.94;12245552;19;19919;-83
2023/06/14 14:54:32;;;;;;;;;;;27.80;32.70;;;26.97;33.83;101338.59;12244938;19;20376;-83
2023/06/14 14:58:33;;;;;;;;;;;27.80;32.20;;;26.82;33.50;101317.09;12245912;19;19955;-84
2023/06/14 15:02:35;;;;;;;;;;;27.80;32.10;;;26.89;33.52;101342.16;12247821;19;19911;-84
2023/06/14 15:06:38;;;;;;;;;;;27.80;32.30;;;26.82;33.48;101339.34;12252654;19;19918;-85
2023/06/14 15:10:41;;;;;;;;;;;27.80;32.60;;;26.84;33.52;101341.84;12259857;19;19915;-84
2023/06/14 15:14:42;;;;;;;;;;;27.70;31.70;;;26.83;33.45;101343.69;12259864;19;19915;-84
2023/06/14 15:18:45;;;;;;;;;;;27.70;33.10;;;26.77;33.30;101333.69;12256704;19;20235;-84
2023/06/14 15:22:46;;;;;;;;;;;27.70;31.80;;;26.80;33.36;101335.19;12259981;19;19922;-85
2023/06/14 15:26:48;;;;;;;;;;;27.70;30.80;;;26.65;33.11;101327.03;12261576;19;19922;-83
2023/06/14 15:30:49;;;;;;;;;;;27.60;31.00;;;26.55;33.00;101311.19;12259761;19;19903;-84
2023/06/14 15:34:51;;;;;;;;;;;27.60;32.00;;;26.68;33.13;101338.25;12259320;19;19919;-85
2023/06/14 15:38:52;;;;;;;;;;;27.50;32.10;;;26.60;32.72;101324.03;12256348;19;19927;-85
2023/06/14 15:42:54;;;;;;;;;;;27.50;31.50;;;26.60;33.21;101330.25;12257620;19;20280;-84
2023/06/14 15:46:56;;;;;;;;;;;27.50;31.30;;;26.64;32.93;101338.78;12258504;19;19931;-85
2023/06/14 15:50:57;;;;;;;;;;;27.40;32.00;;;26.62;32.90;101333.56;12258785;19;19922;-84
2023/06/14 15:54:59;;;;;;;;;;;27.40;32.20;;;26.60;32.59;101332.94;12258562;19;20304;-84
2023/06/14 15:59:00;;;;;;;;;;;27.40;32.30;;;26.62;33.07;101335.44;12252795;19;19922;-84
2023/06/14 16:03:02;;;;;;;;;;;27.40;32.20;;;26.59;32.63;101333.94;12257427;19;19907;-84
2023/06/14 16:07:04;;;;;;;;;;;27.30;32.30;;;26.56;33.08;101331.59;12256250;19;20327;-85
2023/06/14 16:11:06;;;;;;;;;;;27.30;31.90;;;26.57;32.56;101324.41;12257834;19;19926;-84
2023/06/14 16:15:08;;;;;;;;;;;27.30;32.20;;;26.63;32.79;101329.06;12255137;19;19943;-84
2023/06/14 16:19:09;;;;;;;;;;;27.40;32.40;;;26.49;32.86;101306.47;12252386;19;19911;-85
2023/06/14 16:23:11;;;;;;;;;;;27.40;32.50;;;26.60;32.91;101314.19;12256270;19;19918;-85
2023/06/14 16:27:12;;;;;;;;;;;27.40;32.10;;;26.61;32.58;101320.38;12255590;19;19922;-84
2023/06/14 16:31:15;;;;;;;;;;;27.40;32.60;;;26.66;32.84;101331.41;12252423;19;19927;-84
2023/06/14 16:35:16;;;;;;;;;;;27.40;32.70;;;26.57;32.84;101332.44;12251865;19;19914;-84
2023/06/14 16:39:18;;;;;;;;;;;27.40;31.70;;;26.45;32.63;101332.78;12246892;19;19994;-84
2023/06/14 16:43:19;;;;;;;;;;;27.30;31.90;;;26.34;32.54;101333.19;12253569;19;19923;-84
2023/06/14 16:47:21;;;;;;;;;;;27.20;32.30;;;26.22;32.48;101332.72;12255405;19;19915;-84
2023/06/14 16:51:22;;;;;;;;;;;27.20;32.10;;;26.17;32.54;101340.44;12251223;19;19915;-84
2023/06/14 16:55:24;;;;;;;;;;;27.00;32.20;;;26.10;32.52;101346.66;12253445;19;19915;-84
2023/06/14 16:59:25;;;;;;;;;;;27.00;32.50;;;26.11;32.73;101361.69;12248895;19;19929;-84
2023/06/14 17:03:27;;;;;;;;;;;26.90;32.50;;;26.08;32.28;101362.88;12251418;19;19918;-84
2023/06/14 17:07:29;;;;;;;;;;;26.80;32.60;;;25.99;32.69;101362.06;12251540;19;20570;-84
2023/06/14 17:11:30;;;;;;;;;;;26.80;32.00;;;25.94;32.61;101369.75;12251494;19;19919;-84
2023/06/14 17:15:31;;;;;;;;;;;26.70;32.00;;;25.86;32.26;101375.13;12253787;19;19933;-84
2023/06/14 17:19:33;;;;;;;;;;;26.60;32.30;;;25.72;32.50;101360.56;12247549;19;19936;-84
2023/06/14 17:23:34;;;;;;;;;;;26.50;32.30;;;25.68;32.62;101367.25;12250265;19;19944;-84
2023/06/14 17:27:35;;;;;;;;;;;26.50;32.60;;;25.64;32.19;101365.09;12248537;19;19915;-85
2023/06/14 17:31:37;;;;;;;;;;;26.40;32.50;;;25.63;32.59;101374.09;12249307;19;19953;-85
2023/06/14 17:35:38;;;;;;;;;;;26.30;32.60;;;25.60;32.38;101373.44;12251452;19;20281;-85
2023/06/14 17:39:41;;;;;;;;;;;26.30;32.80;;;25.66;32.27;101379.13;12248842;19;19919;-85
2023/06/14 17:43:43;;;;;;;;;;;26.30;32.90;;;25.50;32.39;101358.56;12248918;19;20036;-85
2023/06/14 17:47:44;;;;;;;;;;;26.30;32.90;;;25.56;32.31;101374.78;12250775;19;19914;-84
2023/06/14 17:51:46;;;;;;;;;;;26.30;32.80;;;25.61;32.23;101388.50;12248181;19;19926;-84
2023/06/14 17:55:47;;;;;;;;;;;26.20;33.00;;;25.51;32.42;101366.41;12252692;19;19915;-84
2023/06/14 17:59:49;;;;;;;;;;;26.20;32.90;;;25.49;32.62;101389.84;12250686;19;19907;-84
2023/06/14 18:03:51;;;;;;;;;;;26.20;33.00;;;25.41;32.53;101384.47;12236411;19;19918;-84
2023/06/14 18:07:52;;;;;;;;;;;26.10;32.90;;;25.39;32.25;101394.50;12242866;19;19921;-84
2023/06/14 18:11:55;;;;;;;;;;;26.10;32.70;;;25.27;32.65;101393.13;12244932;19;20256;-84
2023/06/14 18:15:57;;;;;;;;;;;26.00;32.80;;;25.25;32.50;101396.00;12245340;19;19922;-83